Time;durP1;ratioP1;P1;durP2;ratioP2;P2;SDS_P1;SDS_P2;PMS_P1;PMS_P2;Temp;Humidity;BMP_temperature;BMP_pressure;BME280_temperature;BME280_humidity;BME280_pressure;Samples;Min_cycle;Max_cycle;Signal;HPM_P1;HPM_P2
2023/12/16 00:00:57;;;;;;;23.00;7.40;;;7.50;99.90;;;;;;5055843;28;20226;-66
2023/12/16 00:03:24;;;;;;;21.60;8.30;;;7.50;99.90;;;;;;5053971;28;20206;-66
2023/12/16 00:05:52;;;;;;;16.50;8.13;;;7.50;99.90;;;;;;5053818;28;20208;-66
2023/12/16 00:08:18;;;;;;;16.98;7.70;;;7.50;99.90;;;;;;5054181;28;20296;-65
2023/12/16 00:10:46;;;;;;;14.77;7.90;;;7.50;99.90;;;;;;5053954;28;20222;-66
2023/12/16 00:13:13;;;;;;;22.10;7.05;;;7.50;99.90;;;;;;5054223;28;20206;-65
2023/12/16 00:15:40;;;;;;;16.25;8.57;;;7.40;99.90;;;;;;5053917;28;20236;-66
2023/12/16 00:18:07;;;;;;;15.15;8.10;;;7.40;99.90;;;;;;5053538;28;20221;-65
2023/12/16 00:20:34;;;;;;;16.42;7.80;;;7.40;99.90;;;;;;5053748;28;20212;-62
2023/12/16 00:23:01;;;;;;;14.98;7.75;;;7.40;99.90;;;;;;5053741;28;20241;-65
2023/12/16 00:25:28;;;;;;;16.63;8.35;;;7.30;99.90;;;;;;5054254;28;20242;-66
2023/12/16 00:27:56;;;;;;;26.17;8.65;;;7.30;99.90;;;;;;5054497;28;20208;-66
2023/12/16 00:30:23;;;;;;;15.57;7.60;;;7.30;99.90;;;;;;5057119;28;20212;-66
2023/12/16 00:32:49;;;;;;;22.88;8.93;;;7.20;99.90;;;;;;5057721;28;20283;-66
2023/12/16 00:35:16;;;;;;;14.82;7.15;;;7.20;99.90;;;;;;5057229;28;20208;-65
2023/12/16 00:37:43;;;;;;;21.60;8.60;;;7.30;99.90;;;;;;5058387;28;20233;-66
2023/12/16 00:40:11;;;;;;;15.85;7.30;;;7.20;99.90;;;;;;5057034;28;20198;-66
2023/12/16 00:42:38;;;;;;;15.55;7.60;;;7.20;99.90;;;;;;5057996;28;20711;-66
2023/12/16 00:45:07;;;;;;;19.65;8.25;;;7.20;99.90;;;;;;5056994;28;20667;-67
2023/12/16 00:47:34;;;;;;;15.45;7.20;;;7.20;99.90;;;;;;5057282;28;20202;-67
2023/12/16 00:50:01;;;;;;;22.52;7.60;;;7.20;99.90;;;;;;5056988;28;20198;-66
2023/12/16 00:52:28;;;;;;;13.02;7.10;;;7.20;99.90;;;;;;5057020;28;20231;-65
2023/12/16 00:54:54;;;;;;;19.83;7.43;;;7.20;99.90;;;;;;5057499;28;20208;-68
2023/12/16 00:57:21;;;;;;;16.70;7.18;;;7.10;99.90;;;;;;5057449;28;20270;-66
2023/12/16 00:59:48;;;;;;;12.13;6.75;;;7.10;99.90;;;;;;5057747;28;20212;-67
2023/12/16 01:02:17;;;;;;;14.98;7.18;;;7.10;99.90;;;;;;5058638;28;20260;-66
2023/12/16 01:04:43;;;;;;;23.00;7.95;;;7.00;99.90;;;;;;5057758;28;20664;-67
2023/12/16 01:07:10;;;;;;;16.27;7.05;;;7.00;99.90;;;;;;5057065;28;20208;-67
2023/12/16 01:09:37;;;;;;;16.55;6.65;;;7.00;99.90;;;;;;5058701;28;20202;-65
2023/12/16 01:12:05;;;;;;;18.20;7.38;;;7.00;99.90;;;;;;5058322;28;20217;-65
2023/12/16 01:14:31;;;;;;;11.35;6.00;;;7.00;99.90;;;;;;5058036;28;20202;-66
2023/12/16 01:16:58;;;;;;;15.68;5.93;;;6.90;99.90;;;;;;5056640;28;20548;-66
2023/12/16 01:19:26;;;;;;;18.65;7.60;;;6.90;99.90;;;;;;5056259;28;20202;-66
2023/12/16 01:21:53;;;;;;;12.80;5.47;;;6.90;99.90;;;;;;5055964;28;20232;-66
2023/12/16 01:24:21;;;;;;;20.05;7.65;;;6.90;99.90;;;;;;5055985;28;20293;-66
2023/12/16 01:26:47;;;;;;;17.15;5.70;;;7.00;99.90;;;;;;5056755;28;20218;-65
2023/12/16 01:29:14;;;;;;;12.65;4.97;;;7.00;99.90;;;;;;5061617;28;20212;-66
2023/12/16 01:31:41;;;;;;;12.60;5.57;;;7.00;99.90;;;;;;5065956;28;20236;-66
2023/12/16 01:34:08;;;;;;;17.08;5.32;;;7.10;99.90;;;;;;5067995;28;20202;-64
2023/12/16 01:36:36;;;;;;;9.30;5.25;;;7.10;99.90;;;;;;5061368;28;20643;-66
2023/12/16 01:39:03;;;;;;;10.90;4.70;;;7.20;99.90;;;;;;5060811;28;20229;-65
2023/12/16 01:41:30;;;;;;;13.38;4.28;;;7.20;99.90;;;;;;5061705;28;20217;-66
2023/12/16 01:43:57;;;;;;;11.80;4.40;;;7.20;99.90;;;;;;5063186;28;20207;-66
2023/12/16 01:46:24;;;;;;;11.45;4.38;;;7.20;99.90;;;;;;5060423;28;20292;-67
2023/12/16 01:48:51;;;;;;;13.38;5.22;;;7.30;99.90;;;;;;5060903;28;20198;-67
2023/12/16 01:51:18;;;;;;;8.95;4.35;;;7.30;99.90;;;;;;5060922;28;20251;-66
2023/12/16 01:53:47;;;;;;;9.40;3.65;;;7.30;99.90;;;;;;5063751;28;20671;-66
2023/12/16 01:56:14;;;;;;;9.60;4.00;;;7.30;99.90;;;;;;5060354;28;20202;-65
2023/12/16 01:58:42;;;;;;;9.40;3.97;;;7.40;99.90;;;;;;5062884;28;20274;-65
2023/12/16 02:01:09;;;;;;;8.75;4.40;;;7.40;99.90;;;;;;5065097;28;20218;-66
2023/12/16 02:03:37;;;;;;;10.50;3.45;;;7.40;99.90;;;;;;5062712;28;20219;-66
2023/12/16 02:06:05;;;;;;;9.27;3.78;;;7.40;99.90;;;;;;5059985;28;20210;-64
2023/12/16 02:08:32;;;;;;;7.82;3.67;;;7.40;99.90;;;;;;5062362;28;20194;-66
2023/12/16 02:11:00;;;;;;;7.72;3.40;;;7.50;99.90;;;;;;5061206;28;20257;-66
2023/12/16 02:13:27;;;;;;;7.00;3.50;;;7.50;99.90;;;;;;5061925;28;20198;-66
2023/12/16 02:15:53;;;;;;;9.45;3.97;;;7.50;99.90;;;;;;5061207;28;20220;-66
2023/12/16 02:18:20;;;;;;;7.10;3.22;;;7.50;99.90;;;;;;5057687;28;20224;-66
2023/12/16 02:20:47;;;;;;;8.95;3.72;;;7.50;99.90;;;;;;5054916;28;20222;-65
2023/12/16 02:23:17;;;;;;;6.68;3.88;;;7.50;99.90;;;;;;5055386;28;20197;-66
2023/12/16 02:25:44;;;;;;;7.53;3.30;;;7.60;99.90;;;;;;5055052;28;20196;-66
2023/12/16 02:28:11;;;;;;;6.72;3.72;;;7.60;99.90;;;;;;5054850;28;20204;-66
2023/12/16 02:30:38;;;;;;;7.10;3.35;;;7.60;99.90;;;;;;5054806;28;20202;-66
2023/12/16 02:33:05;;;;;;;6.70;3.30;;;7.60;99.90;;;;;;5054721;28;20208;-66
2023/12/16 02:35:32;;;;;;;6.32;3.42;;;7.60;99.90;;;;;;5054808;28;20209;-66
2023/12/16 02:37:58;;;;;;;6.25;3.40;;;7.60;99.90;;;;;;5054333;28;20798;-66
2023/12/16 02:40:26;;;;;;;7.55;3.38;;;7.60;99.90;;;;;;5054352;28;20594;-65
2023/12/16 02:42:53;;;;;;;8.75;2.83;;;7.60;99.90;;;;;;5054732;28;20201;-66
2023/12/16 02:45:20;;;;;;;9.20;2.92;;;7.60;99.90;;;;;;5054757;28;20209;-66
2023/12/16 02:47:47;;;;;;;9.13;3.45;;;7.60;99.90;;;;;;5054805;28;20209;-66
2023/12/16 02:50:12;;;;;;;6.05;3.15;;;7.60;99.90;;;;;;5054645;28;20205;-66
2023/12/16 02:52:39;;;;;;;8.17;2.70;;;7.70;99.90;;;;;;5053178;28;20244;-66
2023/12/16 02:55:07;;;;;;;15.68;4.38;;;7.70;99.90;;;;;;5054444;28;20446;-66
2023/12/16 02:57:35;;;;;;;9.15;3.83;;;7.60;99.90;;;;;;5054164;28;20202;-66
2023/12/16 03:00:02;;;;;;;12.00;3.95;;;7.60;99.90;;;;;;5054446;28;20228;-64
2023/12/16 03:02:29;;;;;;;8.85;3.55;;;7.60;99.90;;;;;;5054015;28;20228;-66
2023/12/16 03:04:55;;;;;;;10.25;3.00;;;7.60;99.90;;;;;;5054584;28;20212;-65
2023/12/16 03:07:22;;;;;;;8.98;3.92;;;7.60;99.90;;;;;;5054272;28;20208;-66
2023/12/16 03:09:49;;;;;;;5.90;3.10;;;7.60;99.90;;;;;;5054255;28;20198;-66
2023/12/16 03:12:16;;;;;;;5.97;3.20;;;7.60;99.90;;;;;;5053979;28;20218;-66
2023/12/16 03:14:44;;;;;;;4.85;2.88;;;7.60;99.90;;;;;;5054155;28;20292;-66
2023/12/16 03:17:12;;;;;;;11.07;4.72;;;7.60;99.90;;;;;;5054050;28;20201;-65
2023/12/16 03:19:39;;;;;;;6.72;4.47;;;7.60;99.90;;;;;;5053569;28;20699;-65
2023/12/16 03:22:05;;;;;;;5.47;2.90;;;7.60;99.90;;;;;;5053571;28;20229;-67
2023/12/16 03:24:32;;;;;;;11.32;3.70;;;7.60;99.90;;;;;;5054207;28;20212;-67
2023/12/16 03:26:59;;;;;;;6.93;3.05;;;7.60;99.90;;;;;;5053483;28;20574;-66
2023/12/16 03:29:26;;;;;;;9.23;2.90;;;7.60;99.90;;;;;;5053711;28;20194;-66
2023/12/16 03:31:55;;;;;;;7.53;3.00;;;7.60;99.90;;;;;;5053699;28;20217;-66
2023/12/16 03:34:22;;;;;;;8.55;2.67;;;7.60;99.90;;;;;;5074914;22;20212;-64
2023/12/16 03:36:49;;;;;;;9.20;3.35;;;7.60;99.90;;;;;;5033544;28;20561;-64
2023/12/16 03:39:16;;;;;;;9.57;3.15;;;7.60;99.90;;;;;;5033325;28;20236;-64
2023/12/16 03:41:42;;;;;;;5.90;2.70;;;7.60;99.90;;;;;;5033397;28;20203;-63
2023/12/16 03:44:09;;;;;;;11.10;5.07;;;7.60;99.90;;;;;;5033134;28;20702;-64
2023/12/16 03:46:36;;;;;;;4.95;2.72;;;7.60;99.90;;;;;;5033253;28;20706;-64
2023/12/16 03:49:04;;;;;;;7.63;2.70;;;7.60;99.90;;;;;;5033119;28;20202;-64
2023/12/16 03:51:31;;;;;;;10.90;3.25;;;7.60;99.90;;;;;;5033268;28;20202;-63
2023/12/16 03:53:57;;;;;;;4.70;2.63;;;7.70;99.90;;;;;;5033592;28;20292;-64
2023/12/16 03:56:24;;;;;;;9.63;3.22;;;7.60;99.90;;;;;;5033607;28;20313;-64
2023/12/16 03:58:51;;;;;;;9.68;2.80;;;7.70;99.90;;;;;;5033367;28;20240;-65
2023/12/16 04:01:18;;;;;;;5.90;2.60;;;7.70;99.90;;;;;;5034116;28;20204;-65
2023/12/16 04:03:45;;;;;;;8.48;2.60;;;7.70;99.90;;;;;;5033464;28;20202;-64
2023/12/16 04:06:13;;;;;;;7.28;2.25;;;7.70;99.90;;;;;;5033560;28;20226;-64
2023/12/16 04:08:41;;;;;;;3.03;1.85;;;7.70;99.90;;;;;;5033722;28;20202;-64
2023/12/16 04:12:46;;;;;;;5.43;2.10;;;7.70;99.90;;;;;;5091687;28;20570;-63
2023/12/16 04:15:12;;;;;;;6.65;2.50;;;7.80;99.90;;;;;;5091890;28;20227;-63
2023/12/16 04:17:39;;;;;;;5.75;2.35;;;7.80;99.90;;;;;;5091956;28;20216;-63
2023/12/16 04:20:07;;;;;;;5.47;2.65;;;7.70;99.90;;;;;;5091000;28;20677;-65
2023/12/16 04:22:34;;;;;;;6.35;2.40;;;7.80;99.90;;;;;;5090920;28;20200;-62
2023/12/16 04:25:09;;;;;;;7.25;3.03;;;7.80;99.90;;;;;;5091288;28;20221;-65
2023/12/16 04:27:36;;;;;;;5.38;2.78;;;7.70;99.90;;;;;;5092059;28;20188;-63
2023/12/16 04:30:05;;;;;;;5.00;2.47;;;7.80;99.90;;;;;;5091079;28;20599;-64
2023/12/16 04:32:31;;;;;;;3.90;2.30;;;7.80;99.90;;;;;;5090813;28;20220;-65
2023/12/16 04:34:58;;;;;;;6.00;2.37;;;7.80;99.90;;;;;;5090656;28;20224;-64
2023/12/16 04:37:25;;;;;;;5.57;2.28;;;7.80;99.90;;;;;;5089928;28;20197;-65
2023/12/16 04:39:51;;;;;;;6.63;2.08;;;7.80;99.90;;;;;;5090649;28;20204;-65
2023/12/16 04:42:18;;;;;;;8.15;3.00;;;7.80;99.90;;;;;;5089848;28;20197;-65
2023/12/16 04:44:46;;;;;;;13.88;3.65;;;7.80;99.90;;;;;;5089951;28;20224;-63
2023/12/16 04:47:14;;;;;;;8.63;2.85;;;7.80;99.90;;;;;;5090240;28;20287;-64
2023/12/16 04:49:41;;;;;;;7.60;3.03;;;7.80;99.90;;;;;;5090035;28;20201;-65
2023/12/16 04:52:08;;;;;;;7.88;2.40;;;7.80;99.90;;;;;;5089862;28;20227;-64
2023/12/16 04:54:34;;;;;;;4.70;2.15;;;7.80;99.90;;;;;;5089846;28;20270;-64
2023/12/16 04:57:02;;;;;;;10.80;2.90;;;7.80;99.90;;;;;;5089863;28;20330;-65
2023/12/16 04:59:29;;;;;;;9.68;2.70;;;7.80;99.90;;;;;;5089608;28;20580;-64
2023/12/16 05:01:56;;;;;;;7.40;2.45;;;7.80;99.90;;;;;;5103886;22;20652;-62
2023/12/16 05:04:24;;;;;;;5.97;2.33;;;7.80;99.90;;;;;;5069662;28;20212;-62
2023/12/16 05:06:50;;;;;;;7.32;2.65;;;7.80;99.90;;;;;;5069381;28;20224;-62
2023/12/16 05:09:17;;;;;;;9.23;2.78;;;7.80;99.90;;;;;;5069206;28;20287;-63
2023/12/16 05:11:44;;;;;;;7.57;2.67;;;7.80;99.90;;;;;;5070279;28;20225;-63
2023/12/16 05:14:11;;;;;;;6.50;2.20;;;7.80;99.90;;;;;;5072270;28;20303;-63
2023/12/16 05:16:37;;;;;;;8.15;2.20;;;7.80;99.90;;;;;;5073308;28;20205;-63
2023/12/16 05:19:04;;;;;;;7.15;3.00;;;7.80;99.90;;;;;;5073138;28;20204;-63
2023/12/16 05:21:32;;;;;;;8.77;3.67;;;7.80;99.90;;;;;;5073843;28;20707;-64
2023/12/16 05:23:59;;;;;;;10.80;3.85;;;7.70;99.90;;;;;;5060922;28;20198;-64
2023/12/16 05:26:26;;;;;;;6.78;2.20;;;7.70;99.90;;;;;;5062538;28;20517;-65
2023/12/16 05:28:53;;;;;;;10.32;3.55;;;7.70;99.90;;;;;;5058204;28;20635;-64
2023/12/16 05:31:20;;;;;;;5.75;2.80;;;7.70;99.90;;;;;;5057409;28;20232;-62
2023/12/16 05:33:46;;;;;;;10.35;3.10;;;7.70;99.90;;;;;;5059535;28;20206;-64
2023/12/16 05:36:13;;;;;;;7.53;3.05;;;7.60;99.90;;;;;;5057999;28;20371;-64
2023/12/16 05:38:41;;;;;;;8.73;4.38;;;7.70;99.90;;;;;;5058328;28;20197;-63
2023/12/16 05:41:08;;;;;;;8.75;4.15;;;7.60;99.90;;;;;;5057939;28;20236;-64
2023/12/16 05:43:35;;;;;;;9.60;3.47;;;7.60;99.90;;;;;;5057378;28;20201;-63
2023/12/16 05:46:02;;;;;;;9.95;3.75;;;7.60;99.90;;;;;;5056642;28;20225;-63
2023/12/16 05:48:29;;;;;;;6.95;3.10;;;7.60;99.90;;;;;;5059684;28;20198;-63
2023/12/16 05:50:56;;;;;;;10.55;3.92;;;7.60;99.90;;;;;;5059247;28;20216;-63
2023/12/16 05:53:23;;;;;;;13.02;3.60;;;7.60;99.90;;;;;;5056595;28;20205;-63
2023/12/16 05:55:51;;;;;;;11.85;4.03;;;7.60;99.90;;;;;;5055225;28;20209;-63
2023/12/16 05:58:18;;;;;;;6.78;3.58;;;7.60;99.90;;;;;;5055588;28;20206;-62
2023/12/16 06:00:45;;;;;;;9.82;3.40;;;7.60;99.90;;;;;;5056296;28;20578;-64
2023/12/16 06:03:12;;;;;;;6.72;3.00;;;7.60;99.90;;;;;;5056766;28;20695;-62
2023/12/16 06:05:38;;;;;;;10.48;3.58;;;7.50;99.90;;;;;;5055339;28;20705;-61
2023/12/16 06:08:05;;;;;;;9.90;4.05;;;7.50;99.90;;;;;;5054761;28;20206;-64
2023/12/16 06:10:32;;;;;;;8.73;4.13;;;7.50;99.90;;;;;;5054857;28;20202;-63
2023/12/16 06:13:00;;;;;;;7.60;4.63;;;7.60;99.90;;;;;;5055342;28;20217;-63
2023/12/16 06:15:27;;;;;;;7.15;3.03;;;7.60;99.90;;;;;;5055189;28;20204;-63
2023/12/16 06:17:53;;;;;;;10.20;3.78;;;7.60;99.90;;;;;;5054504;28;20198;-62
2023/12/16 06:20:20;;;;;;;9.82;3.35;;;7.60;99.90;;;;;;5054402;28;20198;-63
2023/12/16 06:22:47;;;;;;;9.90;3.70;;;7.50;99.90;;;;;;5053989;28;20224;-64
2023/12/16 06:25:14;;;;;;;15.57;4.32;;;7.50;99.90;;;;;;5054405;28;20205;-64
2023/12/16 06:27:43;;;;;;;7.03;3.17;;;7.50;99.90;;;;;;5054167;28;20204;-62
2023/12/16 06:30:13;;;;;;;7.97;3.15;;;7.50;99.90;;;;;;5054320;28;20664;-64
2023/12/16 06:32:40;;;;;;;9.27;3.63;;;7.50;99.90;;;;;;5053652;28;20279;-62
2023/12/16 06:35:08;;;;;;;8.02;3.70;;;7.50;99.90;;;;;;5052904;28;20202;-63
2023/12/16 06:37:35;;;;;;;10.68;3.38;;;7.50;99.90;;;;;;5053820;28;20551;-62
2023/12/16 06:40:02;;;;;;;9.88;3.55;;;7.50;99.90;;;;;;5053873;28;20206;-63
2023/12/16 06:42:29;;;;;;;13.75;4.25;;;7.50;99.90;;;;;;5053656;28;20221;-63
2023/12/16 06:44:56;;;;;;;11.98;3.60;;;7.60;99.90;;;;;;5054066;28;20279;-64
2023/12/16 06:47:24;;;;;;;8.10;3.40;;;7.50;99.90;;;;;;5053713;28;20206;-63
2023/12/16 06:49:52;;;;;;;6.95;2.88;;;7.60;99.90;;;;;;5053593;28;20644;-63
2023/12/16 06:52:19;;;;;;;17.85;4.70;;;7.60;99.90;;;;;;5053704;28;20232;-63
2023/12/16 06:54:45;;;;;;;8.60;3.58;;;7.60;99.90;;;;;;5053690;28;20231;-61
2023/12/16 06:57:12;;;;;;;8.30;3.42;;;7.60;99.90;;;;;;5053703;28;20202;-64
2023/12/16 06:59:39;;;;;;;9.70;3.78;;;7.60;99.90;;;;;;5053475;28;20206;-62
2023/12/16 07:02:06;;;;;;;8.52;2.83;;;7.60;99.90;;;;;;5053481;28;20236;-63
2023/12/16 07:04:34;;;;;;;8.88;3.03;;;7.60;99.90;;;;;;5054232;28;20206;-63
2023/12/16 07:07:01;;;;;;;5.07;2.83;;;7.60;99.90;;;;;;5053863;28;20285;-60
2023/12/16 07:09:27;;;;;;;8.75;3.30;;;7.60;99.90;;;;;;5054022;28;20202;-63
2023/12/16 07:11:54;;;;;;;7.63;3.47;;;7.60;99.90;;;;;;5053778;28;20222;-62
2023/12/16 07:14:21;;;;;;;10.40;3.80;;;7.60;99.90;;;;;;5053856;28;20213;-63
2023/12/16 07:16:48;;;;;;;9.25;3.97;;;7.60;99.90;;;;;;5053482;28;20237;-63
2023/12/16 07:19:15;;;;;;;10.65;3.15;;;7.60;99.90;;;;;;5053312;28;20208;-63
2023/12/16 07:21:43;;;;;;;8.55;3.40;;;7.60;99.90;;;;;;5053250;28;20275;-63
2023/12/16 07:24:10;;;;;;;9.93;3.20;;;7.60;99.90;;;;;;5053268;28;20208;-63
2023/12/16 07:26:37;;;;;;;8.02;2.78;;;7.50;99.90;;;;;;5053460;28;20288;-63
2023/12/16 07:29:03;;;;;;;9.43;3.10;;;7.40;99.90;;;;;;5053250;28;20206;-63
2023/12/16 07:31:30;;;;;;;9.35;2.95;;;7.30;99.90;;;;;;5052951;28;20318;-63
2023/12/16 07:33:57;;;;;;;9.48;3.40;;;7.30;99.90;;;;;;5053256;28;20201;-63
2023/12/16 07:36:24;;;;;;;5.25;2.92;;;7.20;99.90;;;;;;5053136;28;20205;-61
2023/12/16 07:38:55;;;;;;;9.07;4.97;;;7.10;99.90;;;;;;5053062;28;20198;-61
2023/12/16 07:41:22;;;;;;;11.48;3.55;;;7.10;99.90;;;;;;5053102;28;20226;-64
2023/12/16 07:43:48;;;;;;;9.50;3.17;;;7.00;99.90;;;;;;5052842;28;20671;-63
2023/12/16 07:46:16;;;;;;;10.55;3.40;;;7.00;99.90;;;;;;5052636;28;20297;-63
2023/12/16 07:48:43;;;;;;;8.80;3.20;;;7.00;99.90;;;;;;5053639;28;20202;-63
2023/12/16 07:51:15;;;;;;;10.93;3.10;;;6.90;99.90;;;;;;5053317;28;20295;-63
2023/12/16 07:53:43;;;;;;;12.82;3.38;;;6.90;99.90;;;;;;5052714;28;20244;-63
2023/12/16 07:56:17;;;;;;;11.95;3.63;;;6.90;99.90;;;;;;5052742;28;20223;-62
2023/12/16 07:58:44;;;;;;;13.95;4.13;;;6.80;99.90;;;;;;5052909;28;20248;-63
2023/12/16 08:01:14;;;;;;;12.05;3.67;;;6.80;99.90;;;;;;5052825;28;20217;-63
2023/12/16 08:03:41;;;;;;;8.55;3.50;;;6.80;99.90;;;;;;5054091;28;20564;-61
2023/12/16 08:06:09;;;;;;;10.85;4.07;;;6.80;99.90;;;;;;5052842;28;20675;-62
2023/12/16 08:08:36;;;;;;;18.17;3.60;;;6.80;99.90;;;;;;5052279;28;20210;-62
2023/12/16 08:11:03;;;;;;;4.45;3.05;;;6.80;99.90;;;;;;5052328;28;20206;-63
2023/12/16 08:13:32;;;;;;;12.68;3.95;;;6.80;99.90;;;;;;5052313;28;20316;-64
2023/12/16 08:15:59;;;;;;;6.82;3.13;;;6.80;99.90;;;;;;5052359;28;20288;-62
2023/12/16 08:18:26;;;;;;;8.95;3.13;;;6.80;99.90;;;;;;5052457;28;20579;-62
2023/12/16 08:20:53;;;;;;;14.18;3.80;;;6.90;99.90;;;;;;5052199;28;20197;-63
2023/12/16 08:23:21;;;;;;;7.63;3.45;;;6.90;99.90;;;;;;5052182;28;20202;-62
2023/12/16 08:25:47;;;;;;;11.45;4.20;;;7.00;99.90;;;;;;5051959;28;20624;-62
2023/12/16 08:28:14;;;;;;;5.55;3.20;;;7.10;99.90;;;;;;5052163;28;20207;-62
2023/12/16 08:30:44;;;;;;;10.75;4.40;;;7.20;99.90;;;;;;5051996;28;20521;-62
2023/12/16 08:33:12;;;;;;;16.95;4.22;;;7.30;99.90;;;;;;5051865;28;20221;-62
2023/12/16 08:35:38;;;;;;;13.35;5.65;;;7.40;99.90;;;;;;5052070;28;20201;-62
2023/12/16 08:38:05;;;;;;;7.78;2.80;;;7.50;99.90;;;;;;5052171;28;20206;-62
2023/12/16 08:40:32;;;;;;;9.10;3.97;;;7.50;99.90;;;;;;5052127;28;20564;-63
2023/12/16 08:42:59;;;;;;;10.93;3.63;;;7.60;99.90;;;;;;5052274;28;20218;-62
2023/12/16 08:45:25;;;;;;;6.60;3.60;;;7.70;99.90;;;;;;5052242;28;20201;-62
2023/12/16 08:47:54;;;;;;;10.93;3.50;;;7.80;99.90;;;;;;5052192;28;20205;-62
2023/12/16 08:50:23;;;;;;;10.02;3.75;;;8.00;99.90;;;;;;5052609;28;20205;-62
2023/12/16 08:52:50;;;;;;;5.55;3.00;;;8.10;99.90;;;;;;5052322;28;20317;-62
2023/12/16 08:55:17;;;;;;;11.25;3.33;;;8.10;99.90;;;;;;5052303;28;20208;-63
2023/12/16 08:57:43;;;;;;;9.43;3.58;;;8.20;99.90;;;;;;5053266;28;20678;-63
2023/12/16 09:00:11;;;;;;;10.35;3.15;;;8.30;99.90;;;;;;5056358;28;20212;-63
2023/12/16 09:02:39;;;;;;;8.02;3.72;;;8.30;99.90;;;;;;5055717;28;20707;-61
2023/12/16 09:05:08;;;;;;;13.57;3.47;;;8.40;99.90;;;;;;5056947;28;20202;-63
2023/12/16 09:07:35;;;;;;;14.52;5.40;;;8.50;99.90;;;;;;5056832;28;20289;-63
2023/12/16 09:10:02;;;;;;;12.07;3.90;;;8.70;99.90;;;;;;5058127;28;20202;-62
2023/12/16 09:12:28;;;;;;;9.95;3.70;;;8.80;99.90;;;;;;5056065;28;20490;-63
2023/12/16 09:14:55;;;;;;;13.27;3.73;;;8.90;99.90;;;;;;5055814;28;20201;-63
2023/12/16 09:17:22;;;;;;;8.70;4.50;;;9.10;99.90;;;;;;5055535;28;20433;-61
2023/12/16 09:19:48;;;;;;;11.20;4.00;;;9.20;99.90;;;;;;5057202;28;20444;-63
2023/12/16 09:22:19;;;;;;;11.20;4.60;;;9.30;99.90;;;;;;5056168;28;20460;-62
2023/12/16 09:24:47;;;;;;;12.60;4.10;;;9.30;99.90;;;;;;5056221;28;20427;-63
2023/12/16 09:27:12;;;;;;;13.53;3.40;;;9.40;99.90;;;;;;5055728;28;20870;-62
2023/12/16 09:29:40;;;;;;;11.40;3.60;;;9.40;99.90;;;;;;5055244;28;20444;-62
2023/12/16 09:32:08;;;;;;;9.00;3.27;;;9.40;99.90;;;;;;5055145;28;20217;-62
2023/12/16 09:34:34;;;;;;;8.63;3.53;;;9.40;99.90;;;;;;5055188;28;20440;-63
2023/12/16 09:37:01;;;;;;;13.20;3.63;;;9.40;99.90;;;;;;5054883;28;20443;-62
2023/12/16 09:39:29;;;;;;;10.30;3.70;;;9.40;99.90;;;;;;5055168;28;20445;-62
2023/12/16 09:41:57;;;;;;;11.27;4.67;;;9.40;99.90;;;;;;5054667;28;20471;-63
2023/12/16 09:44:25;;;;;;;8.57;4.53;;;9.40;99.90;;;;;;5055082;28;20452;-63
2023/12/16 09:46:56;;;;;;;9.03;3.83;;;9.40;99.90;;;;;;5054617;28;20999;-64
2023/12/16 09:49:25;;;;;;;8.90;3.07;;;9.40;99.90;;;;;;5056313;28;20845;-62
2023/12/16 09:51:52;;;;;;;11.67;4.40;;;9.40;99.90;;;;;;5054657;28;20466;-61
2023/12/16 09:54:19;;;;;;;11.53;4.10;;;9.40;99.90;;;;;;5054622;28;20480;-62
2023/12/16 09:56:50;;;;;;;9.05;3.13;;;9.40;99.90;;;;;;5054665;28;20792;-63
2023/12/16 09:59:17;;;;;;;11.75;3.42;;;9.40;99.90;;;;;;5055584;28;20193;-63
2023/12/16 10:01:50;;;;;;;11.73;3.70;;;9.40;99.90;;;;;;5056974;28;20244;-62
2023/12/16 10:04:18;;;;;;;13.50;4.10;;;9.40;99.90;;;;;;5055038;28;20420;-64
2023/12/16 10:06:45;;;;;;;11.90;5.47;;;9.40;99.90;;;;;;5054771;28;20452;-62
2023/12/16 10:09:11;;;;;;;9.68;3.95;;;9.40;99.90;;;;;;5054567;28;20451;-64
2023/12/16 10:11:40;;;;;;;11.03;4.43;;;9.40;99.90;;;;;;5055087;28;20222;-63
2023/12/16 10:14:08;;;;;;;9.15;3.67;;;9.40;99.90;;;;;;5054813;28;20468;-63
2023/12/16 10:16:35;;;;;;;10.97;3.80;;;9.40;99.90;;;;;;5054571;28;20277;-62
2023/12/16 10:19:02;;;;;;;9.23;3.57;;;9.40;99.90;;;;;;5054338;28;20444;-62
2023/12/16 10:21:30;;;;;;;13.90;4.07;;;9.40;99.90;;;;;;5054308;28;20456;-63
2023/12/16 10:23:58;;;;;;;7.03;3.78;;;9.40;99.90;;;;;;5054738;28;20198;-64
2023/12/16 10:26:25;;;;;;;13.33;3.77;;;9.40;99.90;;;;;;5054379;28;20279;-64
2023/12/16 10:28:53;;;;;;;11.43;4.27;;;9.50;99.90;;;;;;5054925;28;20476;-62
2023/12/16 10:31:24;;;;;;;7.90;3.20;;;9.50;99.90;;;;;;5054589;28;20469;-62
2023/12/16 10:33:51;;;;;;;12.70;4.03;;;9.50;99.90;;;;;;5054334;28;20267;-62
2023/12/16 10:36:19;;;;;;;9.50;3.03;;;9.50;99.90;;;;;;5054056;28;20201;-64
2023/12/16 10:38:45;;;;;;;7.90;3.30;;;9.60;99.90;;;;;;5054107;28;20543;-64
2023/12/16 10:41:12;;;;;;;11.90;4.50;;;9.70;99.90;;;;;;5054312;28;20460;-63
2023/12/16 10:43:39;;;;;;;6.50;3.27;;;9.80;99.90;;;;;;5053921;28;20459;-64
2023/12/16 10:46:07;;;;;;;11.50;3.63;;;9.80;99.90;;;;;;5054610;28;20440;-64
2023/12/16 10:48:37;;;;;;;10.23;3.67;;;9.90;99.90;;;;;;5054974;28;20965;-62
2023/12/16 10:51:05;;;;;;;9.07;3.37;;;10.00;99.90;;;;;;5054672;28;20484;-62
2023/12/16 10:53:39;;;;;;;6.57;3.63;;;10.00;99.90;;;;;;5055112;28;20802;-62
2023/12/16 10:56:15;;;;;;;11.47;3.40;;;10.00;99.90;;;;;;5054278;28;20898;-62
2023/12/16 10:58:48;;;;;;;8.53;3.97;;;10.00;99.90;;;;;;5054438;28;20428;-63
2023/12/16 11:01:18;;;;;;;5.93;2.93;;;10.00;99.90;;;;;;5053206;28;20981;-64
2023/12/16 11:03:52;;;;;;;9.13;3.80;;;10.00;99.90;;;;;;5053594;28;20522;-61
2023/12/16 11:06:27;;;;;;;11.93;3.43;;;10.00;99.90;;;;;;5053681;28;20428;-62
2023/12/16 11:08:54;;;;;;;11.77;4.00;;;10.00;99.90;;;;;;5054315;28;20512;-63
2023/12/16 11:11:21;;;;;;;11.37;3.63;;;10.00;99.90;;;;;;5053847;28;20466;-63
2023/12/16 11:13:50;;;;;;;11.40;3.73;;;10.00;99.90;;;;;;5053408;28;20476;-63
2023/12/16 11:16:23;;;;;;;10.80;3.80;;;10.00;99.90;;;;;;5053448;28;20476;-64
2023/12/16 11:18:54;;;;;;;11.57;4.40;;;10.00;99.90;;;;;;5053566;28;20428;-64
2023/12/16 11:21:22;;;;;;;17.10;4.00;;;10.00;99.90;;;;;;5052648;28;20474;-64
2023/12/16 11:23:49;;;;;;;11.97;3.33;;;10.00;99.90;;;;;;5053023;28;20444;-63
2023/12/16 11:26:16;;;;;;;15.73;4.60;;;10.00;99.90;;;;;;5053504;28;20811;-63
2023/12/16 11:28:43;;;;;;;14.07;3.90;;;10.10;99.90;;;;;;5053029;28;20447;-62
2023/12/16 11:31:11;;;;;;;8.37;2.97;;;10.10;99.90;;;;;;5053086;28;20547;-63
2023/12/16 11:33:44;;;;;;;10.83;3.90;;;10.10;99.90;;;;;;5053251;28;20487;-63
2023/12/16 11:36:12;;;;;;;9.13;3.90;;;10.10;99.90;;;;;;5053238;28;20446;-63
2023/12/16 11:38:42;;;;;;;12.07;3.53;;;10.10;99.90;;;;;;5053037;28;20829;-65
2023/12/16 11:41:10;;;;;;;12.57;3.40;;;10.00;99.90;;;;;;5053111;28;20468;-64
2023/12/16 11:43:53;;;;;;;10.90;3.57;;;10.00;99.90;;;;;;5052804;28;20436;-64
2023/12/16 11:46:40;;;;;;;12.07;4.70;;;10.00;99.90;;;;;;5052612;28;20504;-62
2023/12/16 11:49:10;;;;;;;11.47;3.47;;;10.00;99.90;;;;;;5053177;28;20443;-63
2023/12/16 11:51:39;;;;;;;17.10;4.03;;;10.00;99.90;;;;;;5054544;28;20460;-63
2023/12/16 11:54:08;;;;;;;12.60;4.20;;;10.00;99.90;;;;;;5052605;28;20476;-63
2023/12/16 11:56:35;;;;;;;8.10;3.10;;;10.10;99.90;;;;;;5052424;28;20440;-63
2023/12/16 11:59:02;;;;;;;8.87;3.20;;;10.10;99.90;;;;;;5052578;28;20835;-63
2023/12/16 12:01:31;;;;;;;8.77;3.50;;;10.00;99.90;;;;;;5052075;28;20917;-63
2023/12/16 12:03:58;;;;;;;11.70;3.60;;;10.00;99.90;;;;;;5052616;28;20789;-62
2023/12/16 12:06:26;;;;;;;12.40;3.60;;;10.10;99.90;;;;;;5053360;28;20455;-65
2023/12/16 12:08:54;;;;;;;12.97;3.73;;;10.10;99.90;;;;;;5054435;28;20443;-63
2023/12/16 12:11:21;;;;;;;11.77;3.80;;;10.00;99.90;;;;;;5053069;28;20456;-65
2023/12/16 12:13:50;;;;;;;9.03;3.93;;;10.00;99.90;;;;;;5052810;28;20487;-63
2023/12/16 12:16:17;;;;;;;11.23;3.63;;;10.00;99.90;;;;;;5052752;28;20444;-64
2023/12/16 12:18:44;;;;;;;7.40;3.27;;;10.00;99.90;;;;;;5052471;28;20450;-63
2023/12/16 12:21:11;;;;;;;8.03;3.60;;;10.00;99.90;;;;;;5053060;28;20471;-63
2023/12/16 12:23:40;;;;;;;9.77;5.00;;;10.00;99.90;;;;;;5052864;28;20444;-64
2023/12/16 12:26:08;;;;;;;9.73;5.13;;;10.00;99.90;;;;;;5052395;28;20985;-63
2023/12/16 12:28:35;;;;;;;10.23;3.90;;;10.00;99.90;;;;;;5052434;28;20451;-63
2023/12/16 12:31:06;;;;;;;15.43;4.63;;;10.00;99.90;;;;;;5052925;28;20454;-62
2023/12/16 12:33:34;;;;;;;11.93;3.67;;;10.00;99.90;;;;;;5055120;28;20475;-63
2023/12/16 12:36:00;;;;;;;10.23;4.00;;;10.10;99.90;;;;;;5057012;28;20440;-63
2023/12/16 12:38:29;;;;;;;10.13;3.50;;;10.10;99.90;;;;;;5057414;28;20497;-63
2023/12/16 12:41:01;;;;;;;10.80;3.27;;;10.10;99.90;;;;;;5057185;28;20447;-63
2023/12/16 12:43:30;;;;;;;9.80;3.93;;;10.20;99.90;;;;;;5057748;28;20436;-63
2023/12/16 12:46:08;;;;;;;10.53;4.10;;;10.30;99.90;;;;;;5057615;28;20448;-62
2023/12/16 12:48:35;;;;;;;13.50;3.87;;;10.30;99.90;;;;;;5057833;28;20448;-64
2023/12/16 12:51:04;;;;;;;11.10;3.87;;;10.30;99.90;;;;;;5058174;28;20448;-64
2023/12/16 12:53:31;;;;;;;14.40;4.10;;;10.30;99.90;;;;;;5056954;28;20498;-63